CheckWX is a tool to help pilots better visualize weather data.  It is not intended as a substitute for an official pre-flight weather briefing.

15:12:43 UTC

KHQI METAR
High Island 376
High Island 376, Texas, USA
Current

18 mins ago

KHQI 261455Z AUTO 13011KT 9SM CLR 27/23 A3009 RMK A01
Observed
May-26 @ 14:55 UTC
Wind
  • 130° at 11 KTS
Visibility
9 SM
Flight Rules
VFR
Cloud Levels
  • Clear skies
Temperature
27°C / 81°F
Dewpoint
23°C / 73°F
Heat Index
30°C / 86°F
Humidity
79%
Altimeter
30.09" Hg
Pressure
1018.92 hPa
Previous

38 mins ago

KHQI 261435Z AUTO 12011KT 9SM FEW017 SCT022 27/23 A3009 RMK A01
Observed
May-26 @ 14:35 UTC
Wind
  • 120° at 11 KTS
Visibility
9 SM
Flight Rules
VFR
Cloud Levels
  • Few at 1,700' AGL
  • Scattered at 2,200' AGL
Temperature
27°C / 81°F
Dewpoint
23°C / 73°F
Heat Index
30°C / 86°F
Humidity
79%
Altimeter
30.09" Hg
Pressure
1018.92 hPa
Previous

58 mins ago

KHQI 261415Z AUTO 13012KT 10SM FEW017 27/23 A3009 RMK A01
Observed
May-26 @ 14:15 UTC
Wind
  • 130° at 12 KTS
Visibility
10 SM
Flight Rules
VFR
Cloud Levels
  • Few at 1,700' AGL
Temperature
27°C / 81°F
Dewpoint
23°C / 73°F
Heat Index
30°C / 86°F
Humidity
79%
Altimeter
30.09" Hg
Pressure
1018.92 hPa